createdAt,value
2022-08-28T00:00:08.136Z,4.08
2022-08-28T00:02:10.156Z,4.08
2022-08-28T00:04:11.116Z,4.09
2022-08-28T00:06:12.583Z,4.08
2022-08-28T00:08:13.529Z,4.08
2022-08-28T00:10:14.969Z,4.08
2022-08-28T00:12:16.730Z,4.08
2022-08-28T00:14:17.939Z,4.08
2022-08-28T00:18:20.712Z,4.08
2022-08-28T00:20:22.028Z,4.08
2022-08-28T00:24:24.475Z,4.08
2022-08-28T00:26:26.238Z,4.08
2022-08-28T00:28:27.092Z,4.08
2022-08-28T00:32:30.128Z,4.08
2022-08-28T00:34:33.220Z,4.08
2022-08-28T00:36:32.322Z,4.08
2022-08-28T00:38:33.709Z,4.08
2022-08-28T00:40:34.798Z,4.08
2022-08-28T00:42:36.639Z,4.08
2022-08-28T00:44:38.594Z,4.08
2022-08-28T00:46:40.261Z,4.08
2022-08-28T00:48:41.609Z,4.08
2022-08-28T00:50:42.634Z,4.08
2022-08-28T00:52:43.909Z,4.08
2022-08-28T00:54:58.971Z,4.08
2022-08-28T00:56:47.022Z,4.08
2022-08-28T00:58:47.938Z,4.08
2022-08-28T01:02:50.131Z,4.08
2022-08-28T01:05:00.877Z,4.08
2022-08-28T01:06:52.937Z,4.08
2022-08-28T01:08:54.201Z,4.08
2022-08-28T01:10:55.125Z,4.08
2022-08-28T01:12:56.901Z,4.08
2022-08-28T01:16:59.868Z,4.08
2022-08-28T01:19:00.931Z,4.08
2022-08-28T01:21:02.495Z,4.08
2022-08-28T01:23:03.877Z,4.08
2022-08-28T01:25:05.141Z,4.08
2022-08-28T01:27:06.134Z,4.08
2022-08-28T01:29:07.710Z,4.07
2022-08-28T01:31:08.633Z,4.07
2022-08-28T01:33:09.821Z,4.07
2022-08-28T01:35:11.631Z,4.07
2022-08-28T01:37:12.984Z,4.07
2022-08-28T01:37:56.783Z,4.07
2022-08-28T01:39:57.890Z,4.07
2022-08-28T01:41:59.099Z,4.07
2022-08-28T01:44:00.858Z,4.07
2022-08-28T01:46:11.368Z,4.07
2022-08-28T01:48:03.521Z,4.07
2022-08-28T01:50:04.528Z,4.07
2022-08-28T01:56:09.771Z,4.07
2022-08-28T01:58:10.763Z,4.07
2022-08-28T02:00:12.145Z,4.07
2022-08-28T02:02:13.710Z,4.07
2022-08-28T02:04:15.074Z,4.07
2022-08-28T02:06:16.201Z,4.07
2022-08-28T02:08:18.028Z,4.07
2022-08-28T02:10:18.984Z,4.07
2022-08-28T02:12:20.846Z,4.07
2022-08-28T02:14:22.020Z,4.07
2022-08-28T02:16:31.266Z,4.06
2022-08-28T02:18:24.326Z,4.07
2022-08-28T02:20:25.382Z,4.07
2022-08-28T02:24:28.301Z,4.07
2022-08-28T02:26:30.173Z,4.06
2022-08-28T02:28:31.168Z,4.06
2022-08-28T02:30:32.424Z,4.06
2022-08-28T02:32:33.789Z,4.06
2022-08-28T02:34:35.275Z,4.06
2022-08-28T02:38:38.506Z,4.06
2022-08-28T02:40:40.191Z,4.06
2022-08-28T02:42:41.176Z,4.06
2022-08-28T02:44:42.375Z,4.06
2022-08-28T02:46:44.230Z,4.06
2022-08-28T02:48:45.886Z,4.06
2022-08-28T02:50:47.048Z,4.06
2022-08-28T02:54:49.951Z,4.06
2022-08-28T02:56:51.464Z,4.06
2022-08-28T02:58:52.393Z,4.06
2022-08-28T03:02:54.313Z,4.06
2022-08-28T03:06:57.467Z,4.06
2022-08-28T03:11:00.250Z,4.06
2022-08-28T03:13:02.117Z,4.06
2022-08-28T03:15:03.381Z,4.06
2022-08-28T03:17:04.510Z,4.06
2022-08-28T03:21:07.487Z,4.06
2022-08-28T03:23:09.252Z,4.06
2022-08-28T03:25:10.971Z,4.06
2022-08-28T03:27:12.041Z,4.06
2022-08-28T03:29:13.342Z,4.06
2022-08-28T03:31:15.193Z,4.06
2022-08-28T03:33:16.603Z,4.05
2022-08-28T03:37:19.428Z,4.05
2022-08-28T03:39:20.724Z,4.05
2022-08-28T03:41:21.795Z,4.06
2022-08-28T03:43:23.306Z,4.05
2022-08-28T03:47:25.746Z,4.05
2022-08-28T03:49:27.063Z,4.05
2022-08-28T03:51:29.469Z,4.05
2022-08-28T03:53:30.526Z,4.05
2022-08-28T03:57:34.081Z,4.05
2022-08-28T03:59:35.393Z,4.05
2022-08-28T04:01:37.155Z,4.05
2022-08-28T04:03:38.191Z,4.05
2022-08-28T04:05:39.094Z,4.05
2022-08-28T04:07:40.631Z,4.05
2022-08-28T04:09:42.341Z,4.05
2022-08-28T04:11:43.927Z,4.05
2022-08-28T04:13:44.934Z,4.05
2022-08-28T04:15:46.633Z,4.05
2022-08-28T04:19:49.591Z,4.05
2022-08-28T04:21:50.870Z,4.05
2022-08-28T04:23:52.660Z,4.05
2022-08-28T04:25:54.173Z,4.05
2022-08-28T04:29:57.066Z,4.05
2022-08-28T04:31:58.991Z,4.05
2022-08-28T04:34:00.469Z,4.05
2022-08-28T04:36:02.147Z,4.05
2022-08-28T04:38:05.536Z,4.05
2022-08-28T04:40:04.893Z,4.04
2022-08-28T04:42:06.257Z,4.04
2022-08-28T04:44:07.506Z,4.05
2022-08-28T04:46:08.735Z,4.04
2022-08-28T04:48:10.480Z,4.04
2022-08-28T04:50:11.783Z,4.04
2022-08-28T04:52:13.266Z,4.04
2022-08-28T04:54:14.283Z,4.04
2022-08-28T04:56:15.318Z,4.04
2022-08-28T05:00:18.319Z,4.04
2022-08-28T05:02:20.134Z,4.04
2022-08-28T05:04:21.309Z,4.04
2022-08-28T05:06:22.446Z,4.04
2022-08-28T05:08:23.714Z,4.04
2022-08-28T05:12:26.908Z,4.04
2022-08-28T05:14:28.693Z,4.04
2022-08-28T05:16:29.987Z,4.04
2022-08-28T05:18:31.505Z,4.04
2022-08-28T05:20:32.552Z,4.04
2022-08-28T05:22:33.968Z,4.04
2022-08-28T05:24:35.740Z,4.04
2022-08-28T05:28:38.334Z,4.04
2022-08-28T05:30:40.146Z,4.04
2022-08-28T05:32:41.286Z,4.04
2022-08-28T05:34:42.736Z,4.04
2022-08-28T05:36:44.265Z,4.04
2022-08-28T05:38:45.557Z,4.04
2022-08-28T05:40:47.177Z,4.04
2022-08-28T05:42:48.155Z,4.04
2022-08-28T05:44:49.209Z,4.04
2022-08-28T05:46:50.734Z,4.04
2022-08-28T05:48:51.755Z,4.04
2022-08-28T05:50:53.491Z,4.04
2022-08-28T05:52:55.183Z,4.04
2022-08-28T05:54:56.730Z,4.04
2022-08-28T05:56:58.314Z,4.04
2022-08-28T06:01:00.222Z,4.04
2022-08-28T06:03:01.259Z,4.04
2022-08-28T06:05:02.906Z,4.04
2022-08-28T06:07:04.217Z,4.04
2022-08-28T06:11:07.884Z,4.04
2022-08-28T06:13:08.801Z,4.04
2022-08-28T06:17:12.317Z,4.04
2022-08-28T06:19:13.509Z,4.04
2022-08-28T06:21:14.535Z,4.04
2022-08-28T06:23:15.629Z,4.05
2022-08-28T06:25:16.626Z,4.05
2022-08-28T06:27:17.808Z,4.05
2022-08-28T06:29:21.083Z,4.04
2022-08-28T06:31:23.098Z,4.05
2022-08-28T06:33:22.097Z,4.05
2022-08-28T06:35:22.922Z,4.05
2022-08-28T06:37:24.245Z,4.05
2022-08-28T06:39:26.061Z,4.05
2022-08-28T06:43:28.141Z,4.06
2022-08-28T06:45:29.018Z,4.06
2022-08-28T06:47:30.417Z,4.06
2022-08-28T06:49:31.732Z,4.06
2022-08-28T06:51:33.221Z,4.06
2022-08-28T06:53:34.822Z,4.06
2022-08-28T06:59:39.576Z,4.06
2022-08-28T07:01:40.805Z,4.07
2022-08-28T07:03:44.074Z,4.07
2022-08-28T07:05:43.131Z,4.07
2022-08-28T07:09:46.576Z,4.07
2022-08-28T07:11:48.325Z,4.07
2022-08-28T07:13:50.011Z,4.08
2022-08-28T07:15:51.159Z,4.08
2022-08-28T07:17:52.452Z,4.08
2022-08-28T07:19:53.786Z,4.08
2022-08-28T07:21:55.398Z,4.08
2022-08-28T07:25:58.762Z,4.08
2022-08-28T07:27:59.814Z,4.08
2022-08-28T07:30:00.716Z,4.08
2022-08-28T07:32:02.486Z,4.08
2022-08-28T07:36:05.234Z,4.08
2022-08-28T07:38:06.144Z,4.09
2022-08-28T07:42:08.627Z,4.1
2022-08-28T07:44:10.424Z,4.1
2022-08-28T07:46:11.302Z,4.1
2022-08-28T07:48:13.285Z,4.1
2022-08-28T07:50:14.787Z,4.1
2022-08-28T07:52:16.082Z,4.1
2022-08-28T07:58:19.231Z,4.11
2022-08-28T08:00:20.771Z,4.12
2022-08-28T08:02:22.344Z,4.13
2022-08-28T08:04:23.290Z,4.13
2022-08-28T08:08:26.390Z,4.14
2022-08-28T08:10:27.570Z,4.14
2022-08-28T08:12:29.335Z,4.14
2022-08-28T08:14:29.494Z,4.15
2022-08-28T08:16:31.065Z,4.15
2022-08-28T08:18:32.802Z,4.15
2022-08-28T08:20:34.145Z,4.16
2022-08-28T08:24:36.897Z,4.16
2022-08-28T08:25:20.624Z,4.16
2022-08-28T08:27:22.393Z,4.16
2022-08-28T08:29:23.741Z,4.17
2022-08-28T08:31:24.918Z,4.17
2022-08-28T08:33:26.081Z,4.17
2022-08-28T08:35:27.641Z,4.17
2022-08-28T08:37:28.590Z,4.18
2022-08-28T08:39:31.700Z,4.17
2022-08-28T08:41:31.031Z,4.18
2022-08-28T08:45:33.714Z,4.18
2022-08-28T08:47:34.587Z,4.18
2022-08-28T08:49:35.881Z,4.19
2022-08-28T08:51:36.779Z,4.19
2022-08-28T08:53:38.557Z,4.19
2022-08-28T08:55:39.515Z,4.19
2022-08-28T08:57:40.437Z,4.19
2022-08-28T08:59:41.289Z,4.19
2022-08-28T09:01:42.154Z,4.19
2022-08-28T09:03:44.218Z,4.19
2022-08-28T09:05:44.273Z,4.19
2022-08-28T09:07:46.252Z,4.19
2022-08-28T09:09:46.870Z,4.19
2022-08-28T09:11:50.334Z,4.19
2022-08-28T09:13:49.562Z,4.2
2022-08-28T09:15:51.132Z,4.2
2022-08-28T09:17:52.648Z,4.19
2022-08-28T09:19:53.944Z,4.2
2022-08-28T09:21:55.478Z,4.2
2022-08-28T09:23:56.735Z,4.2
2022-08-28T09:27:59.807Z,4.2
2022-08-28T09:30:02.509Z,4.2
2022-08-28T09:34:02.805Z,4.2
2022-08-28T09:36:04.225Z,4.2
2022-08-28T09:38:05.203Z,4.2
2022-08-28T09:40:06.590Z,4.2
2022-08-28T09:42:08.084Z,4.2
2022-08-28T09:44:08.952Z,4.2
2022-08-28T09:46:10.029Z,4.2
2022-08-28T09:48:11.230Z,4.21
2022-08-28T09:50:12.667Z,4.2
2022-08-28T09:52:13.807Z,4.2
2022-08-28T09:54:15.447Z,4.2
2022-08-28T09:56:16.375Z,4.2
2022-08-28T09:58:17.222Z,4.19
2022-08-28T10:00:18.306Z,4.19
2022-08-28T10:02:19.251Z,4.19
2022-08-28T10:04:20.648Z,4.19
2022-08-28T10:06:22.033Z,4.19
2022-08-28T10:10:24.297Z,4.19
2022-08-28T10:12:25.887Z,4.19
2022-08-28T10:14:26.783Z,4.19
2022-08-28T10:16:27.789Z,4.19
2022-08-28T10:18:29.037Z,4.19
2022-08-28T10:20:30.674Z,4.19
2022-08-28T10:22:31.824Z,4.19
2022-08-28T10:24:32.971Z,4.19
2022-08-28T10:26:34.693Z,4.19
2022-08-28T10:30:37.584Z,4.19
2022-08-28T10:32:38.311Z,4.18
2022-08-28T10:34:39.991Z,4.19
2022-08-28T10:38:42.983Z,4.19
2022-08-28T10:42:44.922Z,4.18
2022-08-28T10:44:46.854Z,4.18
2022-08-28T10:46:48.495Z,4.18
2022-08-28T10:48:49.803Z,4.18
2022-08-28T10:50:51.483Z,4.18
2022-08-28T10:52:52.494Z,4.18
2022-08-28T10:54:53.927Z,4.18
2022-08-28T10:58:56.650Z,4.18
2022-08-28T11:00:58.261Z,4.18
2022-08-28T11:02:59.557Z,4.18
2022-08-28T11:07:02.221Z,4.18
2022-08-28T11:09:02.915Z,4.18
2022-08-28T11:11:04.139Z,4.18
2022-08-28T11:13:05.040Z,4.18
2022-08-28T11:15:06.455Z,4.17
2022-08-28T11:17:08.333Z,4.18
2022-08-28T11:19:09.724Z,4.17
2022-08-28T11:21:10.957Z,4.18
2022-08-28T11:25:13.668Z,4.18
2022-08-28T11:27:14.722Z,4.17
2022-08-28T11:29:15.694Z,4.17
2022-08-28T11:31:19.055Z,4.17
2022-08-28T11:33:18.182Z,4.17
2022-08-28T11:35:19.924Z,4.17
2022-08-28T11:37:21.511Z,4.17
2022-08-28T11:41:24.222Z,4.17
2022-08-28T11:43:25.189Z,4.17
2022-08-28T11:45:26.104Z,4.17
2022-08-28T11:47:27.635Z,4.17
2022-08-28T11:51:30.068Z,4.17
2022-08-28T11:53:31.740Z,4.17
2022-08-28T11:55:33.034Z,4.17
2022-08-28T11:57:34.411Z,4.17
2022-08-28T11:59:35.771Z,4.17
2022-08-28T12:01:36.626Z,4.17
2022-08-28T12:03:37.616Z,4.17
2022-08-28T12:07:40.950Z,4.17
2022-08-28T12:09:42.120Z,4.17
2022-08-28T12:11:42.993Z,4.17
2022-08-28T12:13:43.907Z,4.17
2022-08-28T12:15:45.395Z,4.17
2022-08-28T12:17:46.251Z,4.17
2022-08-28T12:19:51.277Z,4.17
2022-08-28T12:23:49.870Z,4.17
2022-08-28T12:25:51.038Z,4.17
2022-08-28T12:27:51.831Z,4.17
2022-08-28T12:29:53.090Z,4.16
2022-08-28T12:31:54.134Z,4.16
2022-08-28T12:33:55.272Z,4.16
2022-08-28T12:35:56.701Z,4.17
2022-08-28T12:39:58.768Z,4.17
2022-08-28T12:41:59.735Z,4.16
2022-08-28T12:44:01.348Z,4.16
2022-08-28T12:46:02.129Z,4.17
2022-08-28T12:50:04.216Z,4.16
2022-08-28T12:52:05.044Z,4.16
2022-08-28T12:54:06.105Z,4.16
2022-08-28T12:56:07.731Z,4.16
2022-08-28T12:58:09.211Z,4.16
2022-08-28T13:00:10.894Z,4.16
2022-08-28T13:02:11.915Z,4.16
2022-08-28T13:04:12.760Z,4.16
2022-08-28T13:08:14.950Z,4.16
2022-08-28T13:10:16.580Z,4.16
2022-08-28T13:12:17.703Z,4.16
2022-08-28T13:14:19.354Z,4.16
2022-08-28T13:16:20.627Z,4.16
2022-08-28T13:20:22.971Z,4.16
2022-08-28T13:24:25.981Z,4.16
2022-08-28T13:26:27.010Z,4.16
2022-08-28T13:28:27.869Z,4.16
2022-08-28T13:30:29.289Z,4.16
2022-08-28T13:32:30.412Z,4.16
2022-08-28T13:34:31.693Z,4.16
2022-08-28T13:38:34.338Z,4.16
2022-08-28T13:40:56.151Z,4.16
2022-08-28T13:42:36.641Z,4.16
2022-08-28T13:44:37.967Z,4.16
2022-08-28T13:48:40.044Z,4.16
2022-08-28T13:50:40.871Z,4.16
2022-08-28T13:54:45.418Z,4.16
2022-08-28T13:56:45.124Z,4.16
2022-08-28T13:58:47.913Z,4.15
2022-08-28T14:00:47.445Z,4.16
2022-08-28T14:04:49.574Z,4.15
2022-08-28T14:06:50.994Z,4.15
2022-08-28T14:08:52.697Z,4.15
2022-08-28T14:10:53.644Z,4.16
2022-08-28T14:12:54.633Z,4.15
2022-08-28T14:14:56.052Z,4.15
2022-08-28T14:16:57.359Z,4.15
2022-08-28T14:20:58.959Z,4.15
2022-08-28T14:22:59.981Z,4.15
2022-08-28T14:25:10.853Z,4.15
2022-08-28T14:27:02.531Z,4.15
2022-08-28T14:31:05.684Z,4.15
2022-08-28T14:33:07.204Z,4.15
2022-08-28T14:35:08.615Z,4.15
2022-08-28T14:37:09.501Z,4.15
2022-08-28T14:39:11.252Z,4.15
2022-08-28T14:41:12.570Z,4.15
2022-08-28T14:43:14.383Z,4.15
2022-08-28T14:45:15.446Z,4.14
2022-08-28T14:47:17.132Z,4.15
2022-08-28T14:51:19.490Z,4.15
2022-08-28T14:53:20.675Z,4.15
2022-08-28T14:55:21.664Z,4.15
2022-08-28T14:57:22.960Z,4.15
2022-08-28T14:59:24.807Z,4.14
2022-08-28T15:03:27.368Z,4.15
2022-08-28T15:05:28.587Z,4.14
2022-08-28T15:07:29.473Z,4.14
2022-08-28T15:09:30.962Z,4.14
2022-08-28T15:10:14.645Z,4.14
2022-08-28T15:12:16.631Z,4.14
2022-08-28T15:14:17.711Z,4.14
2022-08-28T15:16:18.678Z,4.14
2022-08-28T15:18:20.209Z,4.14
2022-08-28T15:20:21.506Z,4.14
2022-08-28T15:24:24.156Z,4.14
2022-08-28T15:26:25.401Z,4.14
2022-08-28T15:30:27.745Z,4.14
2022-08-28T15:32:29.238Z,4.14
2022-08-28T15:34:30.625Z,4.14
2022-08-28T15:36:31.666Z,4.14
2022-08-28T15:40:34.339Z,4.17
2022-08-28T15:42:35.894Z,4.16
2022-08-28T15:44:36.718Z,4.17
2022-08-28T15:46:37.617Z,4.17
2022-08-28T15:48:38.879Z,4.18
2022-08-28T15:50:39.765Z,4.17
2022-08-28T15:52:40.519Z,4.17
2022-08-28T15:56:43.217Z,4.18
2022-08-28T15:58:44.111Z,4.19
2022-08-28T16:00:44.928Z,4.19
2022-08-28T16:02:46.671Z,4.19
2022-08-28T16:06:48.801Z,4.19
2022-08-28T16:08:49.934Z,4.19
2022-08-28T16:12:53.652Z,4.19
2022-08-28T16:14:53.569Z,4.19
2022-08-28T16:16:55.023Z,4.19
2022-08-28T16:18:56.236Z,4.19
2022-08-28T16:22:59.094Z,4.19
2022-08-28T16:25:00.854Z,4.18
2022-08-28T16:27:02.561Z,4.19
2022-08-28T16:29:03.337Z,4.18
2022-08-28T16:31:04.286Z,4.18
2022-08-28T16:33:05.505Z,4.18
2022-08-28T16:35:06.357Z,4.18
2022-08-28T16:39:09.223Z,4.18
2022-08-28T16:41:10.116Z,4.18
2022-08-28T16:43:11.699Z,4.18
2022-08-28T16:47:15.184Z,4.18
2022-08-28T16:49:16.380Z,4.18
2022-08-28T16:51:18.166Z,4.17
2022-08-28T16:55:20.710Z,4.17
2022-08-28T16:57:22.590Z,4.17
2022-08-28T16:59:24.346Z,4.17
2022-08-28T17:01:25.831Z,4.17
2022-08-28T17:05:28.669Z,4.17
2022-08-28T17:07:30.058Z,4.17
2022-08-28T17:09:31.288Z,4.17
2022-08-28T17:11:32.160Z,4.17
2022-08-28T17:13:33.330Z,4.17
2022-08-28T17:15:35.019Z,4.17
2022-08-28T17:17:36.002Z,4.17
2022-08-28T17:19:38.216Z,4.17
2022-08-28T17:21:38.391Z,4.17
2022-08-28T17:23:39.407Z,4.17
2022-08-28T17:25:40.488Z,4.17
2022-08-28T17:27:41.538Z,4.17
2022-08-28T17:29:42.772Z,4.17
2022-08-28T17:31:43.897Z,4.17
2022-08-28T17:33:45.038Z,4.17
2022-08-28T17:37:46.805Z,4.17
2022-08-28T17:39:48.380Z,4.17
2022-08-28T17:41:50.026Z,4.17
2022-08-28T17:45:52.786Z,4.16
2022-08-28T17:47:53.865Z,4.17
2022-08-28T17:49:54.991Z,4.17
2022-08-28T17:51:56.303Z,4.17
2022-08-28T17:53:57.344Z,4.17
2022-08-28T17:55:58.998Z,4.16
2022-08-28T17:58:00.227Z,4.17
2022-08-28T18:00:01.905Z,4.16
2022-08-28T18:04:03.812Z,4.16
2022-08-28T18:06:05.273Z,4.16
2022-08-28T18:10:08.031Z,4.16
2022-08-28T18:12:12.471Z,4.16
2022-08-28T18:14:10.295Z,4.16
2022-08-28T18:16:11.257Z,4.16
2022-08-28T18:20:13.894Z,4.16
2022-08-28T18:22:15.236Z,4.16
2022-08-28T18:24:16.436Z,4.16
2022-08-28T18:26:17.734Z,4.16
2022-08-28T18:28:21.899Z,4.16
2022-08-28T18:30:19.588Z,4.16
2022-08-28T18:32:21.359Z,4.16
2022-08-28T18:36:23.924Z,4.16
2022-08-28T18:38:25.549Z,4.16
2022-08-28T18:40:27.250Z,4.16
2022-08-28T18:42:28.919Z,4.16
2022-08-28T18:46:30.815Z,4.16
2022-08-28T18:48:31.650Z,4.16
2022-08-28T18:52:33.864Z,4.16
2022-08-28T18:54:35.614Z,4.16
2022-08-28T18:56:38.217Z,4.16
2022-08-28T19:00:40.146Z,4.16
2022-08-28T19:02:41.846Z,4.16
2022-08-28T19:04:43.107Z,4.15
2022-08-28T19:06:44.455Z,4.16
2022-08-28T19:08:45.696Z,4.16
2022-08-28T19:10:46.576Z,4.16
2022-08-28T19:12:47.502Z,4.16
2022-08-28T19:14:48.403Z,4.16
2022-08-28T19:18:51.443Z,4.15
2022-08-28T19:20:52.461Z,4.15
2022-08-28T19:22:53.455Z,4.15
2022-08-28T19:24:54.697Z,4.15
2022-08-28T19:28:56.847Z,4.15
2022-08-28T19:30:58.095Z,4.15
2022-08-28T19:32:59.426Z,4.15
2022-08-28T19:35:00.554Z,4.15
2022-08-28T19:37:02.230Z,4.15
2022-08-28T19:39:03.531Z,4.15
2022-08-28T19:41:05.033Z,4.15
2022-08-28T19:43:06.453Z,4.15
2022-08-28T19:45:08.171Z,4.15
2022-08-28T19:47:09.124Z,4.15
2022-08-28T19:49:10.462Z,4.15
2022-08-28T19:51:14.364Z,4.15
2022-08-28T19:53:13.506Z,4.15
2022-08-28T19:55:15.193Z,4.15
2022-08-28T19:57:16.435Z,4.15
2022-08-28T19:59:18.271Z,4.15
2022-08-28T20:01:20.159Z,4.14
2022-08-28T20:03:21.731Z,4.15
2022-08-28T20:05:23.333Z,4.14
2022-08-28T20:07:25.024Z,4.15
2022-08-28T20:09:26.217Z,4.15
2022-08-28T20:13:28.931Z,4.14
2022-08-28T20:17:32.083Z,4.14
2022-08-28T20:19:33.214Z,4.14
2022-08-28T20:21:36.964Z,4.14
2022-08-28T20:23:35.298Z,4.14
2022-08-28T20:27:37.853Z,4.14
2022-08-28T20:29:39.452Z,4.14
2022-08-28T20:33:42.198Z,4.14
2022-08-28T20:35:43.962Z,4.14
2022-08-28T20:37:45.807Z,4.14
2022-08-28T20:39:46.530Z,4.14
2022-08-28T20:43:49.191Z,4.14
2022-08-28T20:45:50.464Z,4.14
2022-08-28T20:47:51.568Z,4.14
2022-08-28T20:49:53.001Z,4.14
2022-08-28T20:51:54.647Z,4.14
2022-08-28T20:53:55.649Z,4.14
2022-08-28T20:55:57.023Z,4.14
2022-08-28T21:00:03.451Z,4.14
2022-08-28T21:02:00.685Z,4.13
2022-08-28T21:06:02.580Z,4.14
2022-08-28T21:08:03.836Z,4.14
2022-08-28T21:10:07.840Z,4.14
2022-08-28T21:12:06.786Z,4.14
2022-08-28T21:14:07.919Z,4.14
2022-08-28T21:16:09.762Z,4.14
2022-08-28T21:18:11.347Z,4.14
2022-08-28T21:20:12.887Z,4.14
2022-08-28T21:22:14.572Z,4.13
2022-08-28T21:24:15.551Z,4.14
2022-08-28T21:28:17.861Z,4.14
2022-08-28T21:32:20.451Z,4.13
2022-08-28T21:34:22.029Z,4.13
2022-08-28T21:36:23.729Z,4.13
2022-08-28T21:38:25.080Z,4.13
2022-08-28T21:42:27.813Z,4.13
2022-08-28T21:44:28.976Z,4.13
2022-08-28T21:46:30.176Z,4.13
2022-08-28T21:48:31.547Z,4.13
2022-08-28T21:50:33.132Z,4.13
2022-08-28T21:52:34.053Z,4.13
2022-08-28T21:54:35.097Z,4.13
2022-08-28T21:55:18.854Z,4.13
2022-08-28T21:57:20.264Z,4.13
2022-08-28T21:59:21.792Z,4.13
2022-08-28T22:01:23.117Z,4.13
2022-08-28T22:03:23.977Z,4.13
2022-08-28T22:05:25.215Z,4.13
2022-08-28T22:09:28.553Z,4.13
2022-08-28T22:11:29.721Z,4.13
2022-08-28T22:13:30.850Z,4.13
2022-08-28T22:15:32.417Z,4.13
2022-08-28T22:17:33.463Z,4.13
2022-08-28T22:19:35.066Z,4.12
2022-08-28T22:21:36.757Z,4.13
2022-08-28T22:25:40.647Z,4.12
2022-08-28T22:27:41.118Z,4.12
2022-08-28T22:29:42.474Z,4.12
2022-08-28T22:31:45.949Z,4.12
2022-08-28T22:35:45.867Z,4.12
2022-08-28T22:37:47.627Z,4.12
2022-08-28T22:41:50.351Z,4.12
2022-08-28T22:43:51.515Z,4.12
2022-08-28T22:45:52.597Z,4.12
2022-08-28T22:47:53.954Z,4.12
2022-08-28T22:49:55.798Z,4.12
2022-08-28T22:51:57.174Z,4.12
2022-08-28T22:56:00.176Z,4.12
2022-08-28T22:58:01.797Z,4.12
2022-08-28T23:00:03.126Z,4.12
2022-08-28T23:02:04.635Z,4.12
2022-08-28T23:04:05.943Z,4.12
2022-08-28T23:08:08.039Z,4.12
2022-08-28T23:10:09.198Z,4.12
2022-08-28T23:12:10.824Z,4.12
2022-08-28T23:14:12.429Z,4.12
2022-08-28T23:18:15.408Z,4.12
2022-08-28T23:20:16.271Z,4.12
2022-08-28T23:22:17.453Z,4.12
2022-08-28T23:24:18.420Z,4.12
2022-08-28T23:26:19.597Z,4.12
2022-08-28T23:28:20.606Z,4.12
2022-08-28T23:30:21.571Z,4.11
2022-08-28T23:34:24.193Z,4.12
2022-08-28T23:36:25.451Z,4.11
2022-08-28T23:38:26.859Z,4.11
2022-08-28T23:40:28.447Z,4.11
2022-08-28T23:42:29.628Z,4.11
2022-08-28T23:44:30.757Z,4.11
2022-08-28T23:48:33.380Z,4.11
2022-08-28T23:50:35.229Z,4.11
2022-08-28T23:52:36.445Z,4.11
2022-08-28T23:54:38.266Z,4.11
2022-08-28T23:56:39.431Z,4.11
2022-08-28T23:58:43.178Z,4.11
